Hauptseite
METAR-TAF:

METAR-TAF

Flughäfen :

Huánuco, Peru

Breite: 09-54S, Länge: 075-45W, Höhe: 1859 m

Beobachtung

Neuester Wetterbericht von vor 1 Stunde und 36 Minuten, um 23:00 UTC
Wind 14 kt aus Nordost
Temperatur 24°C
Luftfeuchtigkeit 54%
Luftdruck 1020 hPa
Sichtweite 10 km oder mehr
Leicht bewölkt in der Höhe von 4000 ft

METAR: SPNC 222300Z 05014KT 9999 FEW040 24/14 Q1020 RMK PP000

Zeit: 19:36 (00:36 UTC)

Prognose

Neuester Wetterbericht von vor 7 Stunden und 36 Minuten, um 17:00 UTC
Gültige Prognose vom 22 um 18 UTC bis 23 um 18 UTC
Wind 15 kt aus Ost/Nordost
Sichtweite 10 km oder mehr
Leicht bewölkt in der Höhe von 4000 ft
Übergehend zu
vom 22 um 23 UTC bis 23 um 01 UTC
Wind 5 kt aus Ost/Südost

TAF: SPNC 221700Z 2218/2318 06015KT 9999 FEW040 TX29/2219Z TN16/2311Z BECMG 2223/2301 12005KT

Wetterbeobachtungen und Prognosen von mehr als 4000 Flughäfen (METAR und TAF Bericht).

Die verfügbaren Stationen werden durch gelbe und rote Markierungen auf der Karte dargestellt.

Führen Sie die Maus auf sie, um den Namen der Station zu sehen.

Darauf klicken, um die Beobachtung von Wetterbeobachtungen und Prognosen zu sehen.

Um die Karte zu ändern : klicken Sie auf den grünen Tasten mit einem schwarzen Kreuz Zum Vergrößern, auf den grünen Button mit einem Gedankenstrich zu verkleinern, oder auf die grünen Pfeile für benachbarte Karten.


METAR-TAF: